sensor_id;sensor_type;location;lat;lon;timestamp;pressure;altitude;pressure_sealevel;temperature;humidity
61898;BME280;47850;50.274;18.908;2022-08-16T00:00:36;97301.92;;;19.44;77.83
61898;BME280;47850;50.274;18.908;2022-08-16T00:03:03;97306.05;;;19.41;78.32
61898;BME280;47850;50.274;18.908;2022-08-16T00:05:33;97303.52;;;19.37;78.46
61898;BME280;47850;50.274;18.908;2022-08-16T00:08:00;97304.31;;;19.34;78.27
61898;BME280;47850;50.274;18.908;2022-08-16T00:10:29;97303.95;;;19.30;78.54
61898;BME280;47850;50.274;18.908;2022-08-16T00:13:03;97306.08;;;19.26;78.72
61898;BME280;47850;50.274;18.908;2022-08-16T00:15:43;97308.39;;;19.25;78.92
61898;BME280;47850;50.274;18.908;2022-08-16T00:18:12;97314.38;;;19.24;79.00
61898;BME280;47850;50.274;18.908;2022-08-16T00:20:41;97310.43;;;19.22;79.38
61898;BME280;47850;50.274;18.908;2022-08-16T00:23:08;97314.30;;;19.20;79.46
61898;BME280;47850;50.274;18.908;2022-08-16T00:25:35;97315.02;;;19.18;79.80
61898;BME280;47850;50.274;18.908;2022-08-16T00:28:02;97316.61;;;19.16;79.68
61898;BME280;47850;50.274;18.908;2022-08-16T00:30:29;97316.69;;;19.14;79.77
61898;BME280;47850;50.274;18.908;2022-08-16T00:32:58;97317.26;;;19.11;80.07
61898;BME280;47850;50.274;18.908;2022-08-16T00:35:29;97315.03;;;19.10;80.50
61898;BME280;47850;50.274;18.908;2022-08-16T00:37:56;97314.64;;;19.09;80.56
61898;BME280;47850;50.274;18.908;2022-08-16T00:40:26;97314.95;;;19.06;80.51
61898;BME280;47850;50.274;18.908;2022-08-16T00:42:53;97312.36;;;19.02;80.70
61898;BME280;47850;50.274;18.908;2022-08-16T00:48:17;97313.80;;;18.94;80.75
61898;BME280;47850;50.274;18.908;2022-08-16T00:50:44;97311.15;;;18.89;80.85
61898;BME280;47850;50.274;18.908;2022-08-16T00:53:13;97313.61;;;18.85;81.27
61898;BME280;47850;50.274;18.908;2022-08-16T00:55:47;97310.85;;;18.84;81.48
61898;BME280;47850;50.274;18.908;2022-08-16T00:58:17;97312.04;;;18.81;81.46
61898;BME280;47850;50.274;18.908;2022-08-16T01:00:45;97316.45;;;18.77;81.50
61898;BME280;47850;50.274;18.908;2022-08-16T01:03:15;97323.72;;;18.72;81.66
61898;BME280;47850;50.274;18.908;2022-08-16T01:05:43;97325.77;;;18.66;82.17
61898;BME280;47850;50.274;18.908;2022-08-16T01:08:13;97330.19;;;18.62;82.32
61898;BME280;47850;50.274;18.908;2022-08-16T01:10:41;97332.15;;;18.63;82.11
61898;BME280;47850;50.274;18.908;2022-08-16T01:13:11;97335.07;;;18.64;82.06
61898;BME280;47850;50.274;18.908;2022-08-16T01:15:40;97343.90;;;18.60;82.22
61898;BME280;47850;50.274;18.908;2022-08-16T01:18:11;97345.95;;;18.55;82.51
61898;BME280;47850;50.274;18.908;2022-08-16T01:20:45;97342.71;;;18.49;82.75
61898;BME280;47850;50.274;18.908;2022-08-16T01:23:30;97342.00;;;18.45;83.13
61898;BME280;47850;50.274;18.908;2022-08-16T01:25:57;97340.73;;;18.40;83.45
61898;BME280;47850;50.274;18.908;2022-08-16T01:28:24;97338.19;;;18.32;83.57
61898;BME280;47850;50.274;18.908;2022-08-16T01:30:54;97336.67;;;18.26;83.98
61898;BME280;47850;50.274;18.908;2022-08-16T01:33:22;97337.54;;;18.24;84.10
61898;BME280;47850;50.274;18.908;2022-08-16T01:35:58;97333.27;;;18.23;84.28
61898;BME280;47850;50.274;18.908;2022-08-16T01:38:30;97333.45;;;18.22;84.31
61898;BME280;47850;50.274;18.908;2022-08-16T01:41:04;97330.42;;;18.18;84.45
61898;BME280;47850;50.274;18.908;2022-08-16T01:43:32;97328.14;;;18.14;84.67
61898;BME280;47850;50.274;18.908;2022-08-16T01:46:04;97329.71;;;18.12;84.65
61898;BME280;47850;50.274;18.908;2022-08-16T01:48:32;97329.45;;;18.09;84.73
61898;BME280;47850;50.274;18.908;2022-08-16T01:51:00;97333.55;;;18.07;84.82
61898;BME280;47850;50.274;18.908;2022-08-16T01:53:28;97333.79;;;18.04;84.99
61898;BME280;47850;50.274;18.908;2022-08-16T01:55:55;97334.56;;;18.01;85.17
61898;BME280;47850;50.274;18.908;2022-08-16T01:58:22;97341.73;;;17.97;85.47
61898;BME280;47850;50.274;18.908;2022-08-16T02:00:49;97342.33;;;17.95;85.37
61898;BME280;47850;50.274;18.908;2022-08-16T02:03:15;97345.53;;;17.92;85.34
61898;BME280;47850;50.274;18.908;2022-08-16T02:05:42;97339.77;;;17.88;85.75
61898;BME280;47850;50.274;18.908;2022-08-16T02:08:08;97342.52;;;17.83;85.86
61898;BME280;47850;50.274;18.908;2022-08-16T02:10:36;97342.18;;;17.79;86.22
61898;BME280;47850;50.274;18.908;2022-08-16T02:13:05;97346.02;;;17.74;86.36
61898;BME280;47850;50.274;18.908;2022-08-16T02:15:34;97347.43;;;17.70;86.60
61898;BME280;47850;50.274;18.908;2022-08-16T02:18:02;97346.78;;;17.67;87.10
61898;BME280;47850;50.274;18.908;2022-08-16T02:20:33;97347.40;;;17.66;87.20
61898;BME280;47850;50.274;18.908;2022-08-16T02:23:01;97350.49;;;17.70;87.37
61898;BME280;47850;50.274;18.908;2022-08-16T02:25:29;97350.42;;;17.75;87.26
61898;BME280;47850;50.274;18.908;2022-08-16T02:27:55;97346.33;;;17.77;87.09
61898;BME280;47850;50.274;18.908;2022-08-16T02:30:27;97350.52;;;17.77;86.95
61898;BME280;47850;50.274;18.908;2022-08-16T02:32:54;97349.80;;;17.75;87.16
61898;BME280;47850;50.274;18.908;2022-08-16T02:35:23;97343.50;;;17.75;87.25
61898;BME280;47850;50.274;18.908;2022-08-16T02:37:52;97336.31;;;17.74;87.52
61898;BME280;47850;50.274;18.908;2022-08-16T02:40:20;97334.90;;;17.72;87.68
61898;BME280;47850;50.274;18.908;2022-08-16T02:42:48;97332.13;;;17.66;87.51
61898;BME280;47850;50.274;18.908;2022-08-16T02:45:17;97326.50;;;17.61;87.50
61898;BME280;47850;50.274;18.908;2022-08-16T02:47:44;97322.46;;;17.58;87.88
61898;BME280;47850;50.274;18.908;2022-08-16T02:50:10;97326.32;;;17.56;88.01
61898;BME280;47850;50.274;18.908;2022-08-16T02:52:37;97326.15;;;17.54;88.14
61898;BME280;47850;50.274;18.908;2022-08-16T02:55:05;97330.01;;;17.54;88.37
61898;BME280;47850;50.274;18.908;2022-08-16T02:57:32;97333.39;;;17.53;88.49
61898;BME280;47850;50.274;18.908;2022-08-16T02:59:59;97338.91;;;17.53;88.34
61898;BME280;47850;50.274;18.908;2022-08-16T03:02:26;97344.86;;;17.48;88.18
61898;BME280;47850;50.274;18.908;2022-08-16T03:04:53;97346.96;;;17.43;88.23
61898;BME280;47850;50.274;18.908;2022-08-16T03:07:19;97346.14;;;17.37;88.41
61898;BME280;47850;50.274;18.908;2022-08-16T03:09:48;97344.86;;;17.34;88.60
61898;BME280;47850;50.274;18.908;2022-08-16T03:12:14;97343.59;;;17.31;88.67
61898;BME280;47850;50.274;18.908;2022-08-16T03:14:41;97344.90;;;17.26;88.83
61898;BME280;47850;50.274;18.908;2022-08-16T03:17:07;97346.35;;;17.20;89.09
61898;BME280;47850;50.274;18.908;2022-08-16T03:19:34;97342.48;;;17.17;89.54
61898;BME280;47850;50.274;18.908;2022-08-16T03:22:01;97339.01;;;17.15;89.72
61898;BME280;47850;50.274;18.908;2022-08-16T03:24:27;97341.73;;;17.12;89.90
61898;BME280;47850;50.274;18.908;2022-08-16T03:26:56;97344.72;;;17.12;90.08
61898;BME280;47850;50.274;18.908;2022-08-16T03:29:25;97344.16;;;17.09;90.20
61898;BME280;47850;50.274;18.908;2022-08-16T03:31:52;97344.23;;;17.08;90.47
61898;BME280;47850;50.274;18.908;2022-08-16T03:34:20;97340.71;;;17.11;90.65
61898;BME280;47850;50.274;18.908;2022-08-16T03:36:46;97339.55;;;17.15;90.87
61898;BME280;47850;50.274;18.908;2022-08-16T03:39:13;97342.02;;;17.19;90.98
61898;BME280;47850;50.274;18.908;2022-08-16T03:41:39;97342.48;;;17.19;90.35
61898;BME280;47850;50.274;18.908;2022-08-16T03:44:06;97344.61;;;17.19;90.35
61898;BME280;47850;50.274;18.908;2022-08-16T03:46:33;97342.73;;;17.18;90.28
61898;BME280;47850;50.274;18.908;2022-08-16T03:49:00;97339.19;;;17.19;90.56
61898;BME280;47850;50.274;18.908;2022-08-16T03:51:27;97341.48;;;17.22;90.66
61898;BME280;47850;50.274;18.908;2022-08-16T03:53:54;97343.70;;;17.23;90.38
61898;BME280;47850;50.274;18.908;2022-08-16T03:56:20;97350.39;;;17.24;90.25
61898;BME280;47850;50.274;18.908;2022-08-16T03:58:48;97354.71;;;17.22;90.42
61898;BME280;47850;50.274;18.908;2022-08-16T04:01:15;97360.31;;;17.23;90.80
61898;BME280;47850;50.274;18.908;2022-08-16T04:03:41;97359.70;;;17.25;91.08
61898;BME280;47850;50.274;18.908;2022-08-16T04:06:08;97364.38;;;17.31;91.26
61898;BME280;47850;50.274;18.908;2022-08-16T04:08:34;97368.66;;;17.35;90.68
61898;BME280;47850;50.274;18.908;2022-08-16T04:11:01;97369.91;;;17.37;90.19
61898;BME280;47850;50.274;18.908;2022-08-16T04:13:29;97370.80;;;17.39;90.35
61898;BME280;47850;50.274;18.908;2022-08-16T04:15:56;97370.33;;;17.39;90.41
61898;BME280;47850;50.274;18.908;2022-08-16T04:18:25;97365.38;;;17.42;90.73
61898;BME280;47850;50.274;18.908;2022-08-16T04:20:52;97365.17;;;17.46;91.16
61898;BME280;47850;50.274;18.908;2022-08-16T04:23:20;97365.67;;;17.51;90.64
61898;BME280;47850;50.274;18.908;2022-08-16T04:25:49;97368.04;;;17.54;90.44
61898;BME280;47850;50.274;18.908;2022-08-16T04:28:16;97367.52;;;17.56;90.46
61898;BME280;47850;50.274;18.908;2022-08-16T04:30:43;97371.95;;;17.59;90.43
61898;BME280;47850;50.274;18.908;2022-08-16T04:33:09;97375.02;;;17.61;90.59
61898;BME280;47850;50.274;18.908;2022-08-16T04:35:36;97379.77;;;17.65;90.66
61898;BME280;47850;50.274;18.908;2022-08-16T04:38:03;97378.45;;;17.70;90.88
61898;BME280;47850;50.274;18.908;2022-08-16T04:40:31;97377.79;;;17.79;90.78
61898;BME280;47850;50.274;18.908;2022-08-16T04:42:58;97377.91;;;17.89;90.56
61898;BME280;47850;50.274;18.908;2022-08-16T04:45:26;97380.65;;;17.98;90.48
61898;BME280;47850;50.274;18.908;2022-08-16T04:47:53;97371.06;;;18.05;90.34
61898;BME280;47850;50.274;18.908;2022-08-16T04:50:23;97376.36;;;18.10;90.24
61898;BME280;47850;50.274;18.908;2022-08-16T04:52:50;97376.55;;;18.15;90.03
61898;BME280;47850;50.274;18.908;2022-08-16T04:55:20;97378.69;;;18.21;90.01
61898;BME280;47850;50.274;18.908;2022-08-16T04:57:50;97372.02;;;18.26;89.82
61898;BME280;47850;50.274;18.908;2022-08-16T05:00:21;97371.30;;;18.33;89.77
61898;BME280;47850;50.274;18.908;2022-08-16T05:02:51;97371.40;;;18.40;89.66
61898;BME280;47850;50.274;18.908;2022-08-16T05:05:18;97374.81;;;18.46;89.62
61898;BME280;47850;50.274;18.908;2022-08-16T05:07:45;97378.77;;;18.53;89.53
61898;BME280;47850;50.274;18.908;2022-08-16T05:10:13;97381.94;;;18.61;89.32
61898;BME280;47850;50.274;18.908;2022-08-16T05:12:40;97385.18;;;18.69;89.13
61898;BME280;47850;50.274;18.908;2022-08-16T05:15:08;97389.92;;;18.76;88.98
61898;BME280;47850;50.274;18.908;2022-08-16T05:17:35;97388.98;;;18.84;88.61
61898;BME280;47850;50.274;18.908;2022-08-16T05:20:04;97390.81;;;18.91;88.56
61898;BME280;47850;50.274;18.908;2022-08-16T05:22:31;97391.85;;;18.95;88.47
61898;BME280;47850;50.274;18.908;2022-08-16T05:24:58;97395.72;;;19.00;88.40
61898;BME280;47850;50.274;18.908;2022-08-16T05:27:27;97400.45;;;19.05;88.14
61898;BME280;47850;50.274;18.908;2022-08-16T05:29:54;97404.56;;;19.11;87.91
61898;BME280;47850;50.274;18.908;2022-08-16T05:32:20;97409.69;;;19.16;87.75
61898;BME280;47850;50.274;18.908;2022-08-16T05:34:47;97416.72;;;19.21;87.40
61898;BME280;47850;50.274;18.908;2022-08-16T05:37:13;97425.17;;;19.25;87.34
61898;BME280;47850;50.274;18.908;2022-08-16T05:39:40;97428.31;;;19.29;87.10
61898;BME280;47850;50.274;18.908;2022-08-16T05:42:07;97433.62;;;19.35;86.94
61898;BME280;47850;50.274;18.908;2022-08-16T05:44:33;97439.84;;;19.40;86.84
61898;BME280;47850;50.274;18.908;2022-08-16T05:47:00;97438.58;;;19.43;86.53
61898;BME280;47850;50.274;18.908;2022-08-16T05:49:29;97444.34;;;19.44;86.28
61898;BME280;47850;50.274;18.908;2022-08-16T05:51:56;97451.69;;;19.47;86.14
61898;BME280;47850;50.274;18.908;2022-08-16T05:54:26;97450.81;;;19.50;85.50
61898;BME280;47850;50.274;18.908;2022-08-16T05:56:54;97450.34;;;19.53;85.56
61898;BME280;47850;50.274;18.908;2022-08-16T05:59:22;97451.67;;;19.56;85.88
61898;BME280;47850;50.274;18.908;2022-08-16T06:01:50;97455.77;;;19.62;85.85
61898;BME280;47850;50.274;18.908;2022-08-16T06:04:18;97452.85;;;19.65;85.27
61898;BME280;47850;50.274;18.908;2022-08-16T06:06:45;97449.85;;;19.67;84.96
61898;BME280;47850;50.274;18.908;2022-08-16T06:09:13;97446.98;;;19.71;84.76
61898;BME280;47850;50.274;18.908;2022-08-16T06:11:41;97447.62;;;19.75;84.12
61898;BME280;47850;50.274;18.908;2022-08-16T06:14:08;97449.42;;;19.80;83.85
61898;BME280;47850;50.274;18.908;2022-08-16T06:16:35;97448.80;;;19.85;83.70
61898;BME280;47850;50.274;18.908;2022-08-16T06:19:03;97450.77;;;19.92;83.88
61898;BME280;47850;50.274;18.908;2022-08-16T06:21:29;97447.82;;;19.99;83.70
61898;BME280;47850;50.274;18.908;2022-08-16T06:23:56;97451.84;;;20.07;83.42
61898;BME280;47850;50.274;18.908;2022-08-16T06:26:23;97448.73;;;20.14;83.11
61898;BME280;47850;50.274;18.908;2022-08-16T06:28:49;97448.31;;;20.19;82.50
61898;BME280;47850;50.274;18.908;2022-08-16T06:31:16;97448.68;;;20.24;82.19
61898;BME280;47850;50.274;18.908;2022-08-16T06:33:43;97445.81;;;20.31;81.94
61898;BME280;47850;50.274;18.908;2022-08-16T06:36:11;97444.82;;;20.39;81.54
61898;BME280;47850;50.274;18.908;2022-08-16T06:38:38;97448.03;;;20.48;81.46
61898;BME280;47850;50.274;18.908;2022-08-16T06:41:06;97453.53;;;20.54;80.90
61898;BME280;47850;50.274;18.908;2022-08-16T06:43:33;97453.59;;;20.58;80.78
61898;BME280;47850;50.274;18.908;2022-08-16T06:46:02;97454.42;;;20.65;80.57
61898;BME280;47850;50.274;18.908;2022-08-16T06:48:30;97458.52;;;20.71;80.04
61898;BME280;47850;50.274;18.908;2022-08-16T06:50:57;97464.05;;;20.76;79.89
61898;BME280;47850;50.274;18.908;2022-08-16T06:53:24;97465.67;;;20.82;79.50
61898;BME280;47850;50.274;18.908;2022-08-16T06:55:56;97465.08;;;20.88;79.20
61898;BME280;47850;50.274;18.908;2022-08-16T06:58:23;97467.42;;;20.94;78.95
61898;BME280;47850;50.274;18.908;2022-08-16T07:00:50;97471.80;;;21.01;78.67
61898;BME280;47850;50.274;18.908;2022-08-16T07:03:17;97470.02;;;21.08;78.67
61898;BME280;47850;50.274;18.908;2022-08-16T07:05:45;97475.34;;;21.17;78.48
61898;BME280;47850;50.274;18.908;2022-08-16T07:08:12;97477.25;;;21.25;78.25
61898;BME280;47850;50.274;18.908;2022-08-16T07:10:38;97477.27;;;21.33;78.56
61898;BME280;47850;50.274;18.908;2022-08-16T07:13:05;97480.88;;;21.39;77.61
61898;BME280;47850;50.274;18.908;2022-08-16T07:15:31;97477.34;;;21.45;77.19
61898;BME280;47850;50.274;18.908;2022-08-16T07:17:58;97474.67;;;21.49;76.95
61898;BME280;47850;50.274;18.908;2022-08-16T07:20:26;97470.67;;;21.56;76.81
61898;BME280;47850;50.274;18.908;2022-08-16T07:22:54;97470.89;;;21.61;76.83
61898;BME280;47850;50.274;18.908;2022-08-16T07:25:21;97471.48;;;21.65;76.38
61898;BME280;47850;50.274;18.908;2022-08-16T07:27:48;97472.23;;;21.72;76.45
61898;BME280;47850;50.274;18.908;2022-08-16T07:30:22;97472.49;;;21.76;76.23
61898;BME280;47850;50.274;18.908;2022-08-16T07:32:49;97472.61;;;21.80;76.04
61898;BME280;47850;50.274;18.908;2022-08-16T07:35:18;97472.48;;;21.84;75.64
61898;BME280;47850;50.274;18.908;2022-08-16T07:37:45;97472.28;;;21.89;75.86
61898;BME280;47850;50.274;18.908;2022-08-16T07:40:12;97469.38;;;21.94;75.52
61898;BME280;47850;50.274;18.908;2022-08-16T07:42:39;97466.45;;;22.01;75.34
61898;BME280;47850;50.274;18.908;2022-08-16T07:45:07;97466.36;;;22.09;75.23
61898;BME280;47850;50.274;18.908;2022-08-16T07:47:34;97471.98;;;22.16;74.85
61898;BME280;47850;50.274;18.908;2022-08-16T07:50:01;97476.73;;;22.25;74.62
61898;BME280;47850;50.274;18.908;2022-08-16T07:52:28;97476.49;;;22.32;74.20
61898;BME280;47850;50.274;18.908;2022-08-16T07:54:55;97472.86;;;22.39;74.04
61898;BME280;47850;50.274;18.908;2022-08-16T07:57:21;97475.71;;;22.46;74.12
61898;BME280;47850;50.274;18.908;2022-08-16T07:59:48;97476.56;;;22.54;73.75
61898;BME280;47850;50.274;18.908;2022-08-16T08:02:15;97483.22;;;22.61;73.56
61898;BME280;47850;50.274;18.908;2022-08-16T08:04:42;97482.16;;;22.69;73.57
61898;BME280;47850;50.274;18.908;2022-08-16T08:07:08;97487.98;;;22.78;73.40
61898;BME280;47850;50.274;18.908;2022-08-16T08:09:35;97492.15;;;22.87;72.89
61898;BME280;47850;50.274;18.908;2022-08-16T08:12:01;97490.38;;;22.95;72.80
61898;BME280;47850;50.274;18.908;2022-08-16T08:14:28;97488.80;;;23.05;72.38
61898;BME280;47850;50.274;18.908;2022-08-16T08:16:54;97487.57;;;23.14;71.70
61898;BME280;47850;50.274;18.908;2022-08-16T08:19:21;97480.80;;;23.22;71.21
61898;BME280;47850;50.274;18.908;2022-08-16T08:21:49;97479.56;;;23.29;71.19
61898;BME280;47850;50.274;18.908;2022-08-16T08:24:21;97473.85;;;23.34;70.45
61898;BME280;47850;50.274;18.908;2022-08-16T08:26:48;97472.55;;;23.40;69.41
61898;BME280;47850;50.274;18.908;2022-08-16T08:29:14;97477.86;;;23.51;69.38
61898;BME280;47850;50.274;18.908;2022-08-16T08:31:41;97475.95;;;23.61;69.02
61898;BME280;47850;50.274;18.908;2022-08-16T08:34:08;97471.16;;;23.71;68.61
61898;BME280;47850;50.274;18.908;2022-08-16T08:36:34;97471.80;;;23.81;67.40
61898;BME280;47850;50.274;18.908;2022-08-16T08:39:04;97472.52;;;23.89;65.63
61898;BME280;47850;50.274;18.908;2022-08-16T08:41:30;97472.20;;;23.99;66.08
61898;BME280;47850;50.274;18.908;2022-08-16T08:43:57;97476.01;;;24.08;65.43
61898;BME280;47850;50.274;18.908;2022-08-16T08:46:24;97482.27;;;24.17;65.56
61898;BME280;47850;50.274;18.908;2022-08-16T08:48:53;97486.88;;;24.26;64.91
61898;BME280;47850;50.274;18.908;2022-08-16T08:51:20;97488.28;;;24.32;64.56
61898;BME280;47850;50.274;18.908;2022-08-16T08:53:47;97494.88;;;24.40;64.67
61898;BME280;47850;50.274;18.908;2022-08-16T08:56:15;97491.23;;;24.47;64.60
61898;BME280;47850;50.274;18.908;2022-08-16T08:58:42;97485.05;;;24.57;64.70
61898;BME280;47850;50.274;18.908;2022-08-16T09:01:09;97484.80;;;24.66;63.84
61898;BME280;47850;50.274;18.908;2022-08-16T09:03:37;97483.45;;;24.74;63.59
61898;BME280;47850;50.274;18.908;2022-08-16T09:06:05;97482.46;;;24.83;62.22
61898;BME280;47850;50.274;18.908;2022-08-16T09:08:34;97486.52;;;24.91;60.63
61898;BME280;47850;50.274;18.908;2022-08-16T09:11:01;97484.66;;;24.98;59.76
61898;BME280;47850;50.274;18.908;2022-08-16T09:13:27;97482.30;;;25.08;59.53
61898;BME280;47850;50.274;18.908;2022-08-16T09:15:54;97479.63;;;25.17;59.64
61898;BME280;47850;50.274;18.908;2022-08-16T09:18:21;97476.52;;;25.27;59.51
61898;BME280;47850;50.274;18.908;2022-08-16T09:20:50;97477.77;;;25.39;59.36
61898;BME280;47850;50.274;18.908;2022-08-16T09:23:21;97481.02;;;25.49;58.20
61898;BME280;47850;50.274;18.908;2022-08-16T09:25:48;97485.41;;;25.60;57.20
61898;BME280;47850;50.274;18.908;2022-08-16T09:28:15;97488.77;;;25.69;56.69
61898;BME280;47850;50.274;18.908;2022-08-16T09:30:42;97487.28;;;25.77;56.90
61898;BME280;47850;50.274;18.908;2022-08-16T09:33:10;97487.79;;;25.88;56.93
61898;BME280;47850;50.274;18.908;2022-08-16T09:35:37;97486.64;;;25.98;55.85
61898;BME280;47850;50.274;18.908;2022-08-16T09:38:04;97481.36;;;26.08;55.61
61898;BME280;47850;50.274;18.908;2022-08-16T09:40:31;97480.70;;;26.18;55.28
61898;BME280;47850;50.274;18.908;2022-08-16T09:42:58;97477.86;;;26.28;55.88
61898;BME280;47850;50.274;18.908;2022-08-16T09:45:26;97477.36;;;26.43;56.30
61898;BME280;47850;50.274;18.908;2022-08-16T09:47:54;97477.91;;;26.54;55.29
61898;BME280;47850;50.274;18.908;2022-08-16T09:50:21;97476.91;;;26.67;55.22
61898;BME280;47850;50.274;18.908;2022-08-16T09:52:48;97479.46;;;26.76;54.32
61898;BME280;47850;50.274;18.908;2022-08-16T09:55:16;97479.63;;;26.84;54.32
61898;BME280;47850;50.274;18.908;2022-08-16T09:57:43;97475.30;;;26.92;54.11
61898;BME280;47850;50.274;18.908;2022-08-16T10:00:11;97474.65;;;27.01;54.36
61898;BME280;47850;50.274;18.908;2022-08-16T10:02:38;97475.96;;;27.07;53.87
61898;BME280;47850;50.274;18.908;2022-08-16T10:05:07;97470.80;;;27.14;53.32
61898;BME280;47850;50.274;18.908;2022-08-16T10:07:34;97473.73;;;27.22;53.51
61898;BME280;47850;50.274;18.908;2022-08-16T10:10:00;97475.93;;;27.31;53.53
61898;BME280;47850;50.274;18.908;2022-08-16T10:12:28;97477.19;;;27.37;52.57
61898;BME280;47850;50.274;18.908;2022-08-16T10:15:18;97474.42;;;27.44;52.56
61898;BME280;47850;50.274;18.908;2022-08-16T10:17:51;97479.61;;;27.51;51.72
61898;BME280;47850;50.274;18.908;2022-08-16T10:20:19;97479.77;;;27.59;51.73
61898;BME280;47850;50.274;18.908;2022-08-16T10:22:46;97484.30;;;27.70;51.68
61898;BME280;47850;50.274;18.908;2022-08-16T10:25:13;97486.17;;;27.76;51.35
61898;BME280;47850;50.274;18.908;2022-08-16T10:27:39;97487.98;;;27.84;51.32
61898;BME280;47850;50.274;18.908;2022-08-16T10:30:07;97486.78;;;27.93;50.15
61898;BME280;47850;50.274;18.908;2022-08-16T10:32:34;97492.66;;;28.06;51.16
61898;BME280;47850;50.274;18.908;2022-08-16T10:35:01;97493.61;;;28.25;50.31
61898;BME280;47850;50.274;18.908;2022-08-16T10:37:29;97494.44;;;28.42;49.40
61898;BME280;47850;50.274;18.908;2022-08-16T10:39:56;97489.55;;;28.51;48.69
61898;BME280;47850;50.274;18.908;2022-08-16T10:42:22;97487.27;;;28.62;48.39
61898;BME280;47850;50.274;18.908;2022-08-16T10:44:49;97484.77;;;28.75;48.10
61898;BME280;47850;50.274;18.908;2022-08-16T10:47:15;97484.57;;;28.88;47.75
61898;BME280;47850;50.274;18.908;2022-08-16T10:49:42;97483.36;;;29.01;47.57
61898;BME280;47850;50.274;18.908;2022-08-16T10:52:09;97482.77;;;29.16;46.69
61898;BME280;47850;50.274;18.908;2022-08-16T10:54:36;97476.43;;;29.26;45.48
61898;BME280;47850;50.274;18.908;2022-08-16T10:57:04;97477.45;;;29.35;45.02
61898;BME280;47850;50.274;18.908;2022-08-16T10:59:32;97474.09;;;29.51;45.12
61898;BME280;47850;50.274;18.908;2022-08-16T11:02:00;97472.05;;;29.63;44.08
61898;BME280;47850;50.274;18.908;2022-08-16T11:04:26;97474.23;;;29.80;44.78
61898;BME280;47850;50.274;18.908;2022-08-16T11:06:53;97467.61;;;29.97;44.66
61898;BME280;47850;50.274;18.908;2022-08-16T11:09:20;97477.58;;;30.12;43.76
61898;BME280;47850;50.274;18.908;2022-08-16T11:11:46;97477.66;;;30.19;43.02
61898;BME280;47850;50.274;18.908;2022-08-16T11:14:13;97479.29;;;30.31;43.05
61898;BME280;47850;50.274;18.908;2022-08-16T11:16:39;97487.33;;;30.42;43.00
61898;BME280;47850;50.274;18.908;2022-08-16T11:19:06;97482.14;;;30.48;42.21
61898;BME280;47850;50.274;18.908;2022-08-16T11:21:32;97478.26;;;30.45;42.21
61898;BME280;47850;50.274;18.908;2022-08-16T11:24:03;97483.44;;;30.52;42.13
61898;BME280;47850;50.274;18.908;2022-08-16T11:26:30;97475.39;;;30.70;42.11
61898;BME280;47850;50.274;18.908;2022-08-16T11:28:57;97470.29;;;30.83;41.67
61898;BME280;47850;50.274;18.908;2022-08-16T11:31:24;97462.48;;;30.90;41.14
61898;BME280;47850;50.274;18.908;2022-08-16T11:33:50;97459.38;;;31.06;40.66
61898;BME280;47850;50.274;18.908;2022-08-16T11:36:17;97456.73;;;31.22;40.61
61898;BME280;47850;50.274;18.908;2022-08-16T11:38:45;97452.20;;;31.44;40.40
61898;BME280;47850;50.274;18.908;2022-08-16T11:41:12;97452.91;;;31.70;40.12
61898;BME280;47850;50.274;18.908;2022-08-16T11:43:39;97455.30;;;31.86;39.07
61898;BME280;47850;50.274;18.908;2022-08-16T11:46:10;97455.98;;;32.08;38.02
61898;BME280;47850;50.274;18.908;2022-08-16T11:48:37;97462.03;;;32.37;37.42
61898;BME280;47850;50.274;18.908;2022-08-16T11:51:04;97469.02;;;32.55;36.86
61898;BME280;47850;50.274;18.908;2022-08-16T11:53:31;97469.57;;;32.69;37.08
61898;BME280;47850;50.274;18.908;2022-08-16T11:55:59;97468.32;;;32.77;37.04
61898;BME280;47850;50.274;18.908;2022-08-16T11:58:27;97471.03;;;32.92;36.63
61898;BME280;47850;50.274;18.908;2022-08-16T12:00:55;97467.80;;;33.16;35.83
61898;BME280;47850;50.274;18.908;2022-08-16T12:03:29;97466.98;;;33.47;35.34
61898;BME280;47850;50.274;18.908;2022-08-16T12:05:58;97465.59;;;33.66;35.07
61898;BME280;47850;50.274;18.908;2022-08-16T12:08:26;97462.19;;;33.92;35.40
61898;BME280;47850;50.274;18.908;2022-08-16T12:10:53;97451.55;;;34.29;34.90
61898;BME280;47850;50.274;18.908;2022-08-16T12:13:20;97456.52;;;34.65;34.75
61898;BME280;47850;50.274;18.908;2022-08-16T12:15:47;97459.23;;;35.00;34.13
61898;BME280;47850;50.274;18.908;2022-08-16T12:18:13;97456.95;;;35.25;33.19
61898;BME280;47850;50.274;18.908;2022-08-16T12:20:43;97453.92;;;35.53;32.59
61898;BME280;47850;50.274;18.908;2022-08-16T12:23:10;97454.26;;;35.88;32.50
61898;BME280;47850;50.274;18.908;2022-08-16T12:25:37;97460.95;;;36.22;32.07
61898;BME280;47850;50.274;18.908;2022-08-16T12:28:05;97455.98;;;36.33;31.96
61898;BME280;47850;50.274;18.908;2022-08-16T12:30:36;97454.27;;;36.09;31.97
61898;BME280;47850;50.274;18.908;2022-08-16T12:33:05;97451.70;;;35.61;31.55
61898;BME280;47850;50.274;18.908;2022-08-16T12:35:34;97449.44;;;35.52;32.27
61898;BME280;47850;50.274;18.908;2022-08-16T12:38:04;97444.41;;;35.68;31.54
61898;BME280;47850;50.274;18.908;2022-08-16T12:40:36;97446.24;;;35.87;31.42
61898;BME280;47850;50.274;18.908;2022-08-16T12:43:06;97451.02;;;36.05;30.73
61898;BME280;47850;50.274;18.908;2022-08-16T12:45:39;97459.05;;;36.01;29.75
61898;BME280;47850;50.274;18.908;2022-08-16T12:48:07;97455.98;;;35.97;29.16
61898;BME280;47850;50.274;18.908;2022-08-16T12:50:52;97451.35;;;35.64;27.90
61898;BME280;47850;50.274;18.908;2022-08-16T12:53:20;97447.48;;;35.61;28.23
61898;BME280;47850;50.274;18.908;2022-08-16T12:55:48;97443.45;;;35.74;28.68